| time (UTC) | temp C | wind direction | speed KPH | gust KPH | rain 1hr cm | rain 24hr cm | rain mn cm | humidity % | barometer mb |
| 20260507200019 | 15 | 188 | 11.3 | 24.1 | 0.00 | 0.71 | 0.00 | 35 | 1005.9 |
| 20260507194522 | 16 | 203 | 4.8 | 17.7 | 0.00 | 0.81 | 0.00 | 37 | 1005.9 |
| 20260507193024 | 15 | 195 | 6.4 | 20.9 | 0.00 | 0.81 | 0.00 | 35 | 1006.0 |
| 20260507191515 | 16 | 188 | 4.8 | 19.3 | 0.00 | 0.81 | 0.00 | 38 | 1006.3 |
| 20260507190016 | 15 | 137 | 4.8 | 19.3 | 0.00 | 0.81 | 0.00 | 38 | 1006.3 |
| 20260507184515 | 14 | 163 | 14.5 | 22.5 | 0.00 | 0.94 | 0.00 | 35 | 1006.5 |
| 20260507183013 | 15 | 151 | 4.8 | 14.5 | 0.00 | 0.94 | 0.00 | 41 | 1006.6 |
| 20260507181510 | 14 | 180 | 6.4 | 20.9 | 0.00 | 0.94 | 0.00 | 42 | 1006.7 |
| 20260507180014 | 14 | 246 | 3.2 | 16.1 | 0.00 | 0.94 | 0.00 | 45 | 1006.9 |
| 20260507174509 | 14 | 251 | 3.2 | 24.1 | 0.00 | 1.04 | 0.00 | 43 | 1006.8 |
| 20260507173008 | 13 | 178 | 8.0 | 19.3 | 0.00 | 1.04 | 0.00 | 41 | 1006.9 |
| 20260507171509 | 13 | 234 | 6.4 | 19.3 | 0.00 | 1.04 | 0.00 | 39 | 1007.1 |
| 20260507170007 | 14 | 219 | 8.0 | 24.1 | 0.00 | 1.04 | 0.00 | 39 | 1007.1 |
| 20260507164508 | 15 | 207 | 9.7 | 27.4 | 0.00 | 1.04 | 0.00 | 39 | 1007.3 |
| 20260507163004 | 14 | 207 | 3.2 | 20.9 | 0.00 | 1.04 | 0.00 | 43 | 1007.2 |
| 20260507161504 | 15 | 244 | 8.0 | 33.8 | 0.00 | 1.04 | 0.00 | 50 | 1007.3 |
| 20260507160003 | 14 | 179 | 9.7 | 20.9 | 0.00 | 1.04 | 0.00 | 47 | 1007.3 |
| 20260507154559 | 13 | 207 | 8.0 | 19.3 | 0.00 | 1.04 | 0.00 | 50 | 1007.5 |
| 20260507153058 | 13 | 180 | 8.0 | 17.7 | 0.00 | 1.04 | 0.00 | 51 | 1007.6 |
| 20260507151558 | 12 | 200 | 4.8 | 22.5 | 0.00 | 1.04 | 0.00 | 60 | 1008.0 |
| 20260507150053 | 12 | 176 | 4.8 | 14.5 | 0.00 | 1.04 | 0.00 | 67 | 1008.0 |
| 20260507144555 | 12 | 161 | 8.0 | 16.1 | 0.00 | 1.04 | 0.00 | 65 | 1008.0 |
| 20260507143106 | 12 | 162 | 4.8 | 19.3 | 0.00 | 1.04 | 0.00 | 66 | 1007.9 |
| 20260507141606 | 12 | 265 | 6.4 | 17.7 | 0.00 | 1.04 | 0.00 | 64 | 1008.0 |
| 20260507140047 | 11 | 257 | 1.6 | 16.1 | 0.00 | 1.04 | 0.00 | 70 | 1008.0 |
| 20260507134548 | 11 | 217 | 3.2 | 14.5 | 0.00 | 1.04 | 0.00 | 69 | 1008.0 |
| 20260507133045 | 12 | 170 | 4.8 | 16.1 | 0.00 | 1.04 | 0.00 | 70 | 1008.2 |
| 20260507131552 | 11 | 172 | 4.8 | 16.1 | 0.00 | 1.04 | 0.00 | 71 | 1008.4 |
| 20260507130043 | 10 | 305 | 4.8 | 14.5 | 0.00 | 1.04 | 0.00 | 72 | 1008.4 |
| 20260507124538 | 10 | 218 | 1.6 | 11.3 | 0.00 | 1.04 | 0.00 | 73 | 1008.3 |
| 20260507123034 | 10 | 177 | 3.2 | 12.9 | 0.00 | 1.04 | 0.00 | 77 | 1008.4 |
| 20260507121531 | 10 | 181 | 4.8 | 9.7 | 0.00 | 1.04 | 0.00 | 77 | 1008.4 |
| 20260507120029 | 9 | 202 | 3.2 | 9.7 | 0.00 | 1.04 | 0.00 | 81 | 1008.4 |
| 20260507114528 | 8 | 237 | 1.6 | 12.9 | 0.00 | 1.04 | 0.00 | 82 | 1008.4 |
| 20260507113024 | 8 | 255 | 1.6 | 6.4 | 0.00 | 1.04 | 0.00 | 85 | 1008.4 |
| 20260507111523 | 7 | 217 | 1.6 | 4.8 | 0.00 | 1.04 | 0.00 | 85 | 1008.5 |
| 20260507110022 | 7 | 184 | 0.0 | 0.0 | 0.00 | 1.04 | 0.00 | 89 | 1008.1 |
| 20260507104522 | 6 | 195 | 0.0 | 3.2 | 0.00 | 1.04 | 0.00 | 92 | 1008.0 |
| 20260507103017 | 6 | 195 | 0.0 | 3.2 | 0.00 | 1.04 | 0.00 | 91 | 1008.0 |
| 20260507101516 | 6 | 228 | 0.0 | 4.8 | 0.00 | 1.04 | 0.00 | 90 | 1007.6 |
| 20260507100013 | 6 | 228 | 0.0 | 0.0 | 0.00 | 1.04 | 0.00 | 90 | 1008.2 |
| 20260507094511 | 6 | 228 | 0.0 | 4.8 | 0.00 | 1.04 | 0.00 | 91 | 1008.2 |
| 20260507093010 | 6 | 228 | 1.6 | 4.8 | 0.00 | 1.04 | 0.00 | 90 | 1008.1 |
| 20260507091513 | 7 | 172 | 0.0 | 9.7 | 0.00 | 1.04 | 0.00 | 89 | 1008.2 |
| 20260507090006 | 7 | 172 | 1.6 | 12.9 | 0.00 | 1.04 | 0.00 | 89 | 1008.1 |
| 20260507084504 | 7 | 239 | 1.6 | 9.7 | 0.00 | 1.04 | 0.00 | 89 | 1007.7 |
| 20260507083003 | 7 | 180 | 1.6 | 12.9 | 0.00 | 1.04 | 0.00 | 90 | 1007.6 |
| 20260507081501 | 7 | 181 | 0.0 | 12.9 | 0.00 | 1.04 | 0.00 | 90 | 1007.5 |
| 20260507080120 | 7 | 209 | 1.6 | 6.4 | 0.00 | 1.04 | 0.00 | 90 | 1007.6 |
| 20260507074559 | 7 | 199 | 1.6 | 6.4 | 0.00 | 1.04 | 0.00 | 91 | 1007.6 |
| 20260507073056 | 7 | 220 | 1.6 | 6.4 | 0.00 | 1.04 | 0.00 | 91 | 1007.3 |
| 20260507071554 | 7 | 176 | 0.0 | 6.4 | 0.00 | 1.04 | 0.00 | 92 | 1007.4 |
| 20260507064620 | 7 | 242 | 3.2 | 12.9 | 0.00 | 1.04 | 0.00 | 91 | 1007.0 |
| 20260507063052 | 8 | 207 | 1.6 | 12.9 | 0.00 | 1.04 | 0.00 | 92 | 1007.4 |
| 20260507061545 | 8 | 158 | 3.2 | 12.9 | 0.00 | 1.04 | 0.00 | 92 | 1007.2 |
| 20260507060106 | 8 | 192 | 0.0 | 4.8 | 0.00 | 1.04 | 0.00 | 93 | 1007.1 |
| 20260507054548 | 8 | 188 | 3.2 | 14.5 | 0.00 | 1.04 | 0.00 | 93 | 1007.2 |
| 20260507053041 | 8 | 183 | 1.6 | 6.4 | 0.00 | 1.04 | 0.00 | 93 | 1007.1 |
| 20260507051553 | 8 | 165 | 1.6 | 6.4 | 0.00 | 1.04 | 0.00 | 92 | 1006.8 |
| 20260507050045 | 8 | 215 | 4.8 | 17.7 | 0.00 | 1.04 | 0.00 | 91 | 1006.8 |
| 20260507044537 | 8 | 189 | 3.2 | 9.7 | 0.00 | 1.04 | 0.00 | 92 | 1006.6 |
| 20260507043035 | 8 | 189 | 3.2 | 16.1 | 0.00 | 1.04 | 0.00 | 92 | 1007.0 |
| 20260507041533 | 8 | 182 | 1.6 | 12.9 | 0.03 | 1.04 | 0.00 | 92 | 1007.0 |
| 20260507040030 | 8 | 177 | 3.2 | 17.7 | 0.08 | 1.04 | 0.00 | 92 | 1007.0 |
| 20260507034530 | 8 | 194 | 1.6 | 11.3 | 0.18 | 1.04 | 1.04 | 92 | 1006.7 |
| 20260507033027 | 9 | 182 | 3.2 | 9.7 | 0.20 | 1.04 | 1.04 | 92 | 1006.8 |
| 20260507031524 | 9 | 172 | 1.6 | 14.5 | 0.18 | 1.02 | 1.02 | 91 | 1006.8 |
| 20260507030027 | 10 | 173 | 4.8 | 14.5 | 0.10 | 0.94 | 0.94 | 91 | 1006.9 |
| 20260507024523 | 11 | 251 | 8.0 | 14.5 | 0.10 | 0.86 | 0.86 | 90 | 1006.8 |
| 20260507023013 | 12 | 233 | 6.4 | 14.5 | 0.18 | 0.84 | 0.84 | 92 | 1006.4 |
| 20260507021512 | 12 | 206 | 4.8 | 14.5 | 0.43 | 0.84 | 0.84 | 93 | 1006.1 |
| 20260507020012 | 13 | 322 | 3.2 | 8.0 | 0.43 | 0.84 | 0.84 | 93 | 1005.5 |
| 20260507014513 | 13 | 203 | 0.0 | 4.8 | 0.36 | 0.76 | 0.76 | 93 | 1005.5 |
| 20260507013014 | 14 | 211 | 3.2 | 14.5 | 0.25 | 0.66 | 0.66 | 92 | 1005.5 |
| 20260507011510 | 15 | 140 | 3.2 | 8.0 | 0.00 | 0.41 | 0.41 | 93 | 1004.9 |
| 20260507010010 | 15 | 149 | 3.2 | 9.7 | 0.00 | 0.41 | 0.41 | 93 | 1005.0 |
| 20260507004509 | 15 | 108 | 3.2 | 8.0 | 0.00 | 0.43 | 0.41 | 93 | 1004.9 |
| 20260507003009 | 15 | 113 | 4.8 | 9.7 | 0.00 | 0.43 | 0.41 | 93 | 1004.8 |
| 20260507001513 | 15 | 133 | 3.2 | 9.7 | 0.00 | 0.43 | 0.41 | 92 | 1004.8 |
| 20260507000008 | 15 | 107 | 4.8 | 9.7 | 0.00 | 0.43 | 0.41 | 92 | 1004.6 |
| 20260506234510 | 15 | 136 | 4.8 | 12.9 | 0.00 | 0.46 | 0.41 | 92 | 1004.5 |
| 20260506233011 | 15 | 116 | 3.2 | 8.0 | 0.00 | 0.46 | 0.41 | 92 | 1004.5 |
| 20260506231508 | 15 | 111 | 3.2 | 14.5 | 0.00 | 0.46 | 0.41 | 92 | 1004.6 |
| 20260506230017 | 15 | 121 | 4.8 | 11.3 | 0.00 | 0.46 | 0.41 | 92 | 1004.5 |
| 20260506224506 | 15 | 116 | 3.2 | 14.5 | 0.00 | 0.46 | 0.41 | 91 | 1004.5 |
| 20260506223004 | 15 | 129 | 6.4 | 16.1 | 0.00 | 0.46 | 0.41 | 91 | 1004.7 |
| 20260506221503 | 15 | 92 | 6.4 | 16.1 | 0.00 | 0.46 | 0.41 | 91 | 1004.7 |
| 20260506220005 | 15 | 159 | 6.4 | 19.3 | 0.00 | 0.46 | 0.41 | 91 | 1004.8 |
| 20260506214502 | 16 | 102 | 4.8 | 14.5 | 0.00 | 0.46 | 0.41 | 91 | 1004.7 |
| 20260506213001 | 16 | 97 | 6.4 | 19.3 | 0.00 | 0.46 | 0.41 | 91 | 1004.9 |
| 20260506211601 | 16 | 117 | 6.4 | 16.1 | 0.03 | 0.46 | 0.41 | 92 | 1004.9 |
| 20260506210106 | 16 | 128 | 4.8 | 16.1 | 0.05 | 0.46 | 0.41 | 92 | 1004.9 |
| 20260506204606 | 16 | 101 | 8.0 | 17.7 | 0.13 | 0.46 | 0.41 | 92 | 1005.0 |
| 20260506203057 | 16 | 107 | 6.4 | 20.9 | 0.15 | 0.46 | 0.41 | 92 | 1005.2 |
| 20260506201556 | 16 | 85 | 6.4 | 12.9 | 0.13 | 0.43 | 0.38 | 92 | 1005.3 |